This is the latest recevied weather packets stored in our database for station/object OE-11307. If no packets are shown the sender has not sent any weather packets the latest 10 day(s).
| Time | Temp. | Humidity | Pressure | Rain* | Wind** | Luminosity | Snow |
|---|---|---|---|---|---|---|---|
| 1788033314 | 13.89° C | 85% | 853.2 hPa | 0 mm | - | 0 W/m² | - |
| 1788032487 | 13.89° C | 84% | 853.2 hPa | 0 mm | - | 0 W/m² | - |
| 1788032114 | 13.89° C | 84% | 853.1 hPa | 0 mm | - | 0 W/m² | - |
| 1788031514 | 13.89° C | 84% | 853.1 hPa | 0 mm | - | 0 W/m² | - |
| 1788030687 | 14.44° C | 81% | 853.2 hPa | 0 mm | - | 0 W/m² | - |
| 1788030314 | 14.44° C | 83% | 853.1 hPa | 0 mm | - | 0 W/m² | - |
| 1788029714 | 14.44° C | 83% | 853.1 hPa | 0 mm | - | 0 W/m² | - |
| 1788028887 | 14.44° C | 83% | 853 hPa | 0 mm | - | 0 W/m² | - |
| 1788028514 | 14.44° C | 84% | 853 hPa | 0 mm | - | 0 W/m² | - |
| 1788027914 | 14.44° C | 82% | 852.9 hPa | 0 mm | - | 0 W/m² | - |
| 1788027087 | 15° C | 81% | 852.8 hPa | 0 mm | - | 13 W/m² | - |
| 1788026714 | 15.56° C | 80% | 852.7 hPa | 0 mm | - | 25 W/m² | - |
| 1788026114 | 15.56° C | 79% | 852.7 hPa | 0 mm | - | 25 W/m² | - |
| 1788025287 | 15.56° C | 78% | 852.9 hPa | 0 mm | - | 25 W/m² | - |
| 1788024914 | 16.11° C | 70% | 853 hPa | 0 mm | - | 25 W/m² | - |
| 1788024314 | 16.11° C | 72% | 852.8 hPa | 0 mm | - | 38 W/m² | - |
| 1788023487 | 16.67° C | 70% | 852.7 hPa | 0 mm | - | 38 W/m² | - |
| 1788023113 | 16.67° C | 70% | 852.7 hPa | 0 mm | - | 44 W/m² | - |
| 1788022514 | 17.22° C | 67% | 852.7 hPa | 0 mm | - | 107 W/m² | - |
| 1788021687 | 18.33° C | 63% | 852.8 hPa | 0 mm | - | 189 W/m² | - |
| 1788021314 | 18.33° C | 63% | 852.8 hPa | 0 mm | - | 195 W/m² | - |
| 1788020713 | 18.33° C | 61% | 852.8 hPa | 0 mm | - | 246 W/m² | - |
| 1788019887 | 18.89° C | 60% | 852.7 hPa | 0 mm | - | 290 W/m² | - |
| 1788019514 | 18.89° C | 61% | 852.7 hPa | 0 mm | - | 321 W/m² | - |
| 1788018913 | 18.89° C | 59% | 852.7 hPa | 0 mm | - | 340 W/m² | - |
* Rain latest hour (hover to see other rain measurements)
** Current wind speed in m/s (hover to see current wind gust speed)